NKS338 MROC-KFLL
Flight info
| Callsign | NKS338 |
|---|---|
| Flight time | N/A |
| Altitude | 34000 |
| Route | NANJO3R RADON UB767 PZA/N0450F360 UZ751 SELEK UL345 FUNKO/N0445F370 |
| Aircraft | A21N/M-SDE2E3FGHIRWXY/LB1 |
Departure
| Time | 2026-05-04 20:41 |
|---|---|
| Airport | Juan Santamaría International Airport (MROC) |
Arrival
| Time | N/A |
|---|---|
| Airport | Fort Lauderdale Hollywood International Airport (KFLL) |
| Time | Latitude | Longitude | Altitude | Speed | Heading |
|---|---|---|---|---|---|
| 2026-05-04 20:08 | 9.99720 | -84.20416 | 3037 ft | 0 kts | 339° |
| 2026-05-04 20:30 | 9.99715 | -84.20414 | 3028 ft | 2 kts | 339° |
| 2026-05-04 20:30 | 9.99698 | -84.20408 | 3038 ft | 2 kts | 339° |
| 2026-05-04 20:30 | 9.99682 | -84.20399 | 3035 ft | 3 kts | 309° |
| 2026-05-04 20:31 | 9.99675 | -84.20384 | 3036 ft | 3 kts | 259° |
| 2026-05-04 20:31 | 9.99681 | -84.20365 | 3036 ft | 2 kts | 248° |
| 2026-05-04 20:31 | 9.99683 | -84.20362 | 3037 ft | 0 kts | 248° |
| 2026-05-04 20:35 | 9.99673 | -84.20388 | 3036 ft | 11 kts | 248° |
| 2026-05-04 20:35 | 9.99647 | -84.20456 | 3040 ft | 9 kts | 252° |
| 2026-05-04 20:35 | 9.99614 | -84.20547 | 3038 ft | 16 kts | 250° |
| 2026-05-04 20:35 | 9.99578 | -84.20643 | 3037 ft | 13 kts | 249° |
| 2026-05-04 20:36 | 9.99547 | -84.20727 | 3039 ft | 14 kts | 249° |
| 2026-05-04 20:36 | 9.99510 | -84.20824 | 3037 ft | 14 kts | 249° |
| 2026-05-04 20:36 | 9.99470 | -84.20930 | 3033 ft | 22 kts | 249° |
| 2026-05-04 20:36 | 9.99411 | -84.21088 | 3014 ft | 26 kts | 249° |
| 2026-05-04 20:37 | 9.99349 | -84.21254 | 3007 ft | 24 kts | 249° |
| 2026-05-04 20:37 | 9.99290 | -84.21412 | 2993 ft | 24 kts | 249° |
| 2026-05-04 20:37 | 9.99231 | -84.21571 | 2980 ft | 24 kts | 249° |
| 2026-05-04 20:37 | 9.99171 | -84.21728 | 2972 ft | 23 kts | 249° |
| 2026-05-04 20:38 | 9.99117 | -84.21872 | 2958 ft | 21 kts | 249° |
| 2026-05-04 20:38 | 9.99100 | -84.22001 | 2960 ft | 18 kts | 278° |
| 2026-05-04 20:38 | 9.99093 | -84.22099 | 2954 ft | 13 kts | 249° |
| 2026-05-04 20:38 | 9.99054 | -84.22191 | 2939 ft | 14 kts | 229° |
| 2026-05-04 20:39 | 9.99024 | -84.22209 | 2941 ft | 2 kts | 186° |
| 2026-05-04 20:39 | 9.99009 | -84.22205 | 2946 ft | 3 kts | 162° |
| 2026-05-04 20:39 | 9.98968 | -84.22191 | 2949 ft | 6 kts | 161° |
| 2026-05-04 20:39 | 9.98930 | -84.22176 | 2943 ft | 6 kts | 151° |
| 2026-05-04 20:40 | 9.98917 | -84.22152 | 2940 ft | 0 kts | 97° |
| 2026-05-04 20:40 | 9.98922 | -84.22134 | 2944 ft | 13 kts | 70° |
| 2026-05-04 20:40 | 9.99032 | -84.21840 | 2972 ft | 75 kts | 69° |
| 2026-05-04 20:40 | 9.99298 | -84.21128 | 3009 ft | 139 kts | 69° |
| 2026-05-04 20:41 | 9.99657 | -84.20141 | 3515 ft | 151 kts | 66° |
| 2026-05-04 20:41 | 10.00067 | -84.19097 | 4117 ft | 167 kts | 65° |
| 2026-05-04 20:41 | 10.00540 | -84.17976 | 4727 ft | 181 kts | 58° |
| 2026-05-04 20:41 | 10.01383 | -84.16929 | 4976 ft | 202 kts | 32° |
| 2026-05-04 20:42 | 10.02759 | -84.16588 | 5075 ft | 215 kts | 348° |
| 2026-05-04 20:42 | 10.04079 | -84.17346 | 5217 ft | 232 kts | 309° |
| 2026-05-04 20:42 | 10.04802 | -84.18895 | 5351 ft | 257 kts | 290° |
| 2026-05-04 20:42 | 10.05455 | -84.20665 | 5609 ft | 277 kts | 291° |
| 2026-05-04 20:43 | 10.06114 | -84.22537 | 6232 ft | 284 kts | 292° |
| 2026-05-04 20:43 | 10.06771 | -84.24435 | 7072 ft | 286 kts | 290° |
| 2026-05-04 20:43 | 10.07426 | -84.26369 | 7895 ft | 294 kts | 291° |
| 2026-05-04 20:43 | 10.08116 | -84.28337 | 8640 ft | 300 kts | 292° |
| 2026-05-04 20:44 | 10.09090 | -84.30210 | 9383 ft | 301 kts | 308° |
| 2026-05-04 20:44 | 10.10596 | -84.31673 | 10176 ft | 303 kts | 329° |
| 2026-05-04 20:44 | 10.12603 | -84.32406 | 10546 ft | 317 kts | 357° |
| 2026-05-04 20:44 | 10.14795 | -84.32102 | 10834 ft | 332 kts | 21° |
| 2026-05-04 20:45 | 10.16972 | -84.31170 | 11190 ft | 345 kts | 27° |
| 2026-05-04 20:45 | 10.19178 | -84.30135 | 11703 ft | 354 kts | 26° |
| 2026-05-04 20:45 | 10.21439 | -84.29112 | 12302 ft | 358 kts | 26° |
| 2026-05-04 20:45 | 10.23738 | -84.28072 | 12843 ft | 364 kts | 26° |
| 2026-05-04 20:46 | 10.26066 | -84.27017 | 13344 ft | 367 kts | 25° |
| 2026-05-04 20:46 | 10.28413 | -84.25951 | 13768 ft | 372 kts | 26° |
| 2026-05-04 20:46 | 10.30781 | -84.24873 | 14201 ft | 374 kts | 26° |
| 2026-05-04 20:46 | 10.33165 | -84.23788 | 14629 ft | 377 kts | 26° |
| 2026-05-04 20:47 | 10.35564 | -84.22696 | 15127 ft | 378 kts | 25° |
| 2026-05-04 20:47 | 10.37946 | -84.21611 | 15558 ft | 380 kts | 25° |
| 2026-05-04 20:47 | 10.40372 | -84.20505 | 16056 ft | 382 kts | 25° |
| 2026-05-04 20:47 | 10.42806 | -84.19395 | 16484 ft | 385 kts | 25° |
| 2026-05-04 20:48 | 10.45257 | -84.18278 | 16949 ft | 387 kts | 25° |
| 2026-05-04 20:48 | 10.47724 | -84.17153 | 17340 ft | 390 kts | 25° |
| 2026-05-04 20:48 | 10.50207 | -84.16020 | 17774 ft | 391 kts | 25° |
| 2026-05-04 20:48 | 10.52696 | -84.14884 | 18112 ft | 394 kts | 24° |
| 2026-05-04 20:49 | 10.55200 | -84.13742 | 18461 ft | 395 kts | 24° |
| 2026-05-04 20:49 | 10.57725 | -84.12589 | 18706 ft | 399 kts | 24° |
| 2026-05-04 20:49 | 10.60258 | -84.11433 | 18996 ft | 400 kts | 24° |
| 2026-05-04 20:49 | 10.62775 | -84.10283 | 19224 ft | 403 kts | 24° |
| 2026-05-04 20:50 | 10.65337 | -84.09113 | 19511 ft | 404 kts | 24° |
| 2026-05-04 20:50 | 10.67911 | -84.07938 | 19735 ft | 406 kts | 24° |
| 2026-05-04 20:50 | 10.70545 | -84.06889 | 19982 ft | 407 kts | 18° |
| 2026-05-04 20:50 | 10.73273 | -84.06082 | 20172 ft | 409 kts | 14° |
| 2026-05-04 20:51 | 10.76044 | -84.05399 | 20422 ft | 410 kts | 12° |
| 2026-05-04 20:51 | 10.78849 | -84.04775 | 20644 ft | 412 kts | 11° |
| 2026-05-04 20:51 | 10.81659 | -84.04172 | 20887 ft | 413 kts | 11° |
| 2026-05-04 20:51 | 10.84449 | -84.03572 | 21111 ft | 415 kts | 11° |
| 2026-05-04 20:52 | 10.87278 | -84.02954 | 21370 ft | 417 kts | 12° |
| 2026-05-04 20:52 | 10.90117 | -84.02322 | 21588 ft | 419 kts | 11° |
| 2026-05-04 20:52 | 10.92967 | -84.01680 | 21840 ft | 420 kts | 12° |
| 2026-05-04 20:52 | 10.95841 | -84.01025 | 22066 ft | 422 kts | 12° |
| 2026-05-04 20:53 | 10.98714 | -84.00368 | 22304 ft | 424 kts | 12° |
| 2026-05-04 20:53 | 11.01597 | -83.99707 | 22528 ft | 426 kts | 11° |
| 2026-05-04 20:53 | 11.04498 | -83.99044 | 22756 ft | 428 kts | 12° |
| 2026-05-04 20:53 | 11.07377 | -83.98385 | 22988 ft | 429 kts | 11° |
| 2026-05-04 20:54 | 11.10302 | -83.97715 | 23212 ft | 431 kts | 11° |
| 2026-05-04 20:54 | 11.13232 | -83.97044 | 23446 ft | 432 kts | 11° |
| 2026-05-04 20:54 | 11.16180 | -83.96369 | 23610 ft | 434 kts | 11° |
| 2026-05-04 20:54 | 11.19131 | -83.95693 | 23804 ft | 435 kts | 11° |
| 2026-05-04 20:55 | 11.22094 | -83.95014 | 23968 ft | 437 kts | 11° |
| 2026-05-04 20:55 | 11.25069 | -83.94333 | 24164 ft | 438 kts | 12° |
| 2026-05-04 20:55 | 11.28048 | -83.93652 | 24350 ft | 439 kts | 11° |
| 2026-05-04 20:55 | 11.31036 | -83.92968 | 24555 ft | 441 kts | 11° |
| 2026-05-04 20:56 | 11.33992 | -83.92292 | 24744 ft | 443 kts | 11° |
| 2026-05-04 20:56 | 11.37007 | -83.91602 | 24969 ft | 445 kts | 12° |
| 2026-05-04 20:56 | 11.40034 | -83.90909 | 25205 ft | 446 kts | 11° |
| 2026-05-04 20:56 | 11.43060 | -83.90215 | 25529 ft | 446 kts | 11° |
| 2026-05-04 20:57 | 11.46097 | -83.89519 | 25801 ft | 447 kts | 11° |
| 2026-05-04 20:57 | 11.49143 | -83.88823 | 26038 ft | 449 kts | 11° |
| 2026-05-04 20:57 | 11.52205 | -83.88122 | 26273 ft | 451 kts | 11° |
| 2026-05-04 20:57 | 11.55239 | -83.87424 | 26492 ft | 453 kts | 12° |
| 2026-05-04 20:58 | 11.58326 | -83.86714 | 26716 ft | 455 kts | 11° |
| 2026-05-04 20:58 | 11.61428 | -83.86001 | 26929 ft | 457 kts | 11° |
| 2026-05-04 20:58 | 11.64541 | -83.85286 | 27165 ft | 459 kts | 12° |
| 2026-05-04 20:58 | 11.67667 | -83.84567 | 27380 ft | 461 kts | 11° |
| 2026-05-04 20:59 | 11.70802 | -83.83848 | 27593 ft | 463 kts | 12° |
| 2026-05-04 20:59 | 11.73952 | -83.83125 | 27782 ft | 465 kts | 11° |
| 2026-05-04 20:59 | 11.77119 | -83.82399 | 27993 ft | 467 kts | 11° |
| 2026-05-04 20:59 | 11.80299 | -83.81670 | 28185 ft | 468 kts | 11° |
| 2026-05-04 21:00 | 11.83488 | -83.80938 | 28389 ft | 470 kts | 11° |
| 2026-05-04 21:00 | 11.86646 | -83.80211 | 28574 ft | 472 kts | 11° |
| 2026-05-04 21:00 | 11.89852 | -83.79473 | 28840 ft | 472 kts | 11° |
| 2026-05-04 21:00 | 11.93053 | -83.78737 | 29117 ft | 471 kts | 12° |
| 2026-05-04 21:01 | 11.96257 | -83.78000 | 29411 ft | 471 kts | 11° |
| 2026-05-04 21:01 | 11.99453 | -83.77271 | 29688 ft | 470 kts | 11° |
| 2026-05-04 21:01 | 12.02662 | -83.76609 | 29931 ft | 471 kts | 9° |
| 2026-05-04 21:01 | 12.05878 | -83.75998 | 30175 ft | 470 kts | 8° |
| 2026-05-04 21:02 | 12.09103 | -83.75411 | 30381 ft | 470 kts | 9° |
| 2026-05-04 21:02 | 12.12327 | -83.74830 | 30618 ft | 470 kts | 8° |
| 2026-05-04 21:02 | 12.15542 | -83.74248 | 30842 ft | 469 kts | 8° |
| 2026-05-04 21:02 | 12.18763 | -83.73660 | 31055 ft | 470 kts | 9° |
| 2026-05-04 21:03 | 12.21935 | -83.73078 | 31280 ft | 469 kts | 9° |
| 2026-05-04 21:03 | 12.25148 | -83.72483 | 31486 ft | 469 kts | 9° |
| 2026-05-04 21:03 | 12.28367 | -83.71884 | 31734 ft | 468 kts | 9° |
| 2026-05-04 21:03 | 12.31585 | -83.71285 | 31924 ft | 469 kts | 9° |
| 2026-05-04 21:04 | 12.34787 | -83.70688 | 32177 ft | 468 kts | 9° |
| 2026-05-04 21:04 | 12.37991 | -83.70089 | 32427 ft | 467 kts | 9° |
| 2026-05-04 21:04 | 12.41182 | -83.69492 | 32630 ft | 467 kts | 9° |
| 2026-05-04 21:04 | 12.44383 | -83.68894 | 32856 ft | 466 kts | 9° |
| 2026-05-04 21:05 | 12.47568 | -83.68300 | 33060 ft | 466 kts | 9° |
| 2026-05-04 21:05 | 12.50763 | -83.67704 | 33270 ft | 465 kts | 9° |
| 2026-05-04 21:05 | 12.53909 | -83.67116 | 33456 ft | 465 kts | 9° |
| 2026-05-04 21:05 | 12.57091 | -83.66521 | 33668 ft | 465 kts | 9° |
| 2026-05-04 21:06 | 12.60276 | -83.65927 | 33836 ft | 465 kts | 9° |
| 2026-05-04 21:06 | 12.63469 | -83.65332 | 33893 ft | 465 kts | 9° |
| 2026-05-04 21:06 | 12.69846 | -83.64140 | 33898 ft | 465 kts | 8° |
| 2026-05-04 21:07 | 12.76174 | -83.62958 | 33901 ft | 464 kts | 9° |
| 2026-05-04 21:07 | 12.82537 | -83.61771 | 33901 ft | 464 kts | 9° |
| 2026-05-04 21:08 | 12.88898 | -83.60579 | 33906 ft | 463 kts | 9° |
| 2026-05-04 21:08 | 12.95216 | -83.59396 | 33905 ft | 463 kts | 9° |
| 2026-05-04 21:09 | 13.01559 | -83.58206 | 33903 ft | 463 kts | 9° |
| 2026-05-04 21:09 | 13.07904 | -83.57014 | 33903 ft | 462 kts | 8° |
| 2026-05-04 21:10 | 13.13147 | -83.56030 | 33903 ft | 460 kts | 8° |
| 2026-05-04 21:10 | 13.19442 | -83.54851 | 33903 ft | 459 kts | 8° |
| 2026-05-04 21:11 | 13.25736 | -83.53671 | 33900 ft | 459 kts | 8° |
| 2026-05-04 21:11 | 13.32000 | -83.52499 | 33900 ft | 460 kts | 9° |
| 2026-05-04 21:12 | 13.38309 | -83.51312 | 33899 ft | 461 kts | 9° |
| 2026-05-04 21:12 | 13.44626 | -83.50122 | 33896 ft | 461 kts | 8° |
| 2026-05-04 21:13 | 13.50930 | -83.48935 | 33892 ft | 460 kts | 8° |
| 2026-05-04 21:13 | 13.57203 | -83.47754 | 33891 ft | 460 kts | 8° |
| 2026-05-04 21:14 | 13.63514 | -83.46566 | 33890 ft | 460 kts | 8° |
| 2026-05-04 21:14 | 13.69832 | -83.45376 | 33896 ft | 460 kts | 8° |
| 2026-05-04 21:15 | 13.76135 | -83.44188 | 33897 ft | 460 kts | 8° |
| 2026-05-04 21:15 | 13.82441 | -83.42998 | 33903 ft | 461 kts | 8° |
| 2026-05-04 21:16 | 13.88706 | -83.41816 | 33907 ft | 461 kts | 8° |
| 2026-05-04 21:16 | 13.95016 | -83.40625 | 33884 ft | 461 kts | 8° |
| 2026-05-04 21:17 | 14.01332 | -83.39431 | 33884 ft | 461 kts | 8° |
| 2026-05-04 21:17 | 14.07649 | -83.38299 | 33894 ft | 461 kts | 7° |
| 2026-05-04 21:18 | 14.13991 | -83.37310 | 33897 ft | 461 kts | 6° |
| 2026-05-04 21:18 | 14.20336 | -83.36346 | 33894 ft | 461 kts | 6° |
| 2026-05-04 21:19 | 14.26690 | -83.35367 | 33900 ft | 461 kts | 6° |
| 2026-05-04 21:19 | 14.32998 | -83.34384 | 33900 ft | 461 kts | 6° |
| 2026-05-04 21:20 | 14.39346 | -83.33390 | 33900 ft | 461 kts | 6° |
| 2026-05-04 21:20 | 14.45698 | -83.32395 | 33906 ft | 461 kts | 6° |
| 2026-05-04 21:21 | 14.52050 | -83.31400 | 33906 ft | 461 kts | 6° |
| 2026-05-04 21:21 | 14.58456 | -83.30399 | 33917 ft | 470 kts | 6° |
| 2026-05-04 21:22 | 14.64982 | -83.29378 | 33913 ft | 478 kts | 6° |
| 2026-05-04 21:22 | 14.71548 | -83.28347 | 33914 ft | 480 kts | 6° |
| 2026-05-04 21:23 | 14.78170 | -83.27306 | 33916 ft | 480 kts | 6° |
| 2026-05-04 21:23 | 14.84784 | -83.26267 | 33919 ft | 479 kts | 6° |
| 2026-05-04 21:24 | 14.91325 | -83.25238 | 33919 ft | 477 kts | 6° |
| 2026-05-04 21:24 | 14.97880 | -83.24208 | 33922 ft | 476 kts | 6° |
| 2026-05-04 21:25 | 15.04428 | -83.23178 | 33923 ft | 476 kts | 6° |
| 2026-05-04 21:25 | 15.10983 | -83.22146 | 33922 ft | 476 kts | 6° |
| 2026-05-04 21:26 | 15.17546 | -83.21113 | 33928 ft | 476 kts | 6° |
| 2026-05-04 21:26 | 15.24069 | -83.20086 | 33927 ft | 478 kts | 6° |
| 2026-05-04 21:27 | 15.30647 | -83.19049 | 33936 ft | 478 kts | 6° |
| 2026-05-04 21:27 | 15.37232 | -83.18009 | 33936 ft | 478 kts | 6° |
| 2026-05-04 21:28 | 15.43827 | -83.16967 | 33938 ft | 479 kts | 6° |
| 2026-05-04 21:28 | 15.50410 | -83.15926 | 33938 ft | 479 kts | 6° |
| 2026-05-04 21:29 | 15.56952 | -83.14891 | 33940 ft | 479 kts | 6° |
| 2026-05-04 21:29 | 15.63563 | -83.13846 | 33938 ft | 480 kts | 6° |
| 2026-05-04 21:30 | 15.70170 | -83.12800 | 33941 ft | 481 kts | 6° |
| 2026-05-04 21:30 | 15.76783 | -83.11752 | 33941 ft | 481 kts | 6° |
| 2026-05-04 21:31 | 15.86716 | -83.10177 | 33941 ft | 480 kts | 6° |
| 2026-05-04 21:32 | 15.93288 | -83.09134 | 33945 ft | 481 kts | 6° |
| 2026-05-04 21:32 | 15.99908 | -83.08082 | 33947 ft | 481 kts | 6° |
| 2026-05-04 21:33 | 16.06529 | -83.07031 | 33947 ft | 481 kts | 6° |
| 2026-05-04 21:33 | 16.13144 | -83.05979 | 33947 ft | 481 kts | 6° |
| 2026-05-04 21:34 | 16.19755 | -83.04927 | 33950 ft | 481 kts | 6° |
| 2026-05-04 21:34 | 16.26318 | -83.03882 | 33951 ft | 478 kts | 5° |
| 2026-05-04 21:35 | 16.32876 | -83.02835 | 33947 ft | 474 kts | 5° |
| 2026-05-04 21:35 | 16.39402 | -83.01795 | 33948 ft | 474 kts | 5° |
| 2026-05-04 21:36 | 16.45924 | -83.00755 | 33952 ft | 474 kts | 5° |
| 2026-05-04 21:36 | 16.52404 | -82.99722 | 33951 ft | 474 kts | 5° |
| 2026-05-04 21:37 | 16.58924 | -82.98680 | 33953 ft | 474 kts | 5° |
| 2026-05-04 21:37 | 16.65452 | -82.97635 | 33956 ft | 475 kts | 5° |
| 2026-05-04 21:38 | 16.71984 | -82.96591 | 33949 ft | 475 kts | 5° |
| 2026-05-04 21:38 | 16.78522 | -82.95544 | 33953 ft | 475 kts | 5° |
| 2026-05-04 21:39 | 16.85055 | -82.94498 | 33956 ft | 475 kts | 5° |
| 2026-05-04 21:39 | 16.91596 | -82.93449 | 33955 ft | 475 kts | 5° |
| 2026-05-04 21:40 | 16.98097 | -82.92405 | 33957 ft | 475 kts | 4° |
| 2026-05-04 21:40 | 17.04645 | -82.91354 | 33956 ft | 476 kts | 4° |
| 2026-05-04 21:41 | 17.11195 | -82.90302 | 33957 ft | 476 kts | 4° |
| 2026-05-04 21:41 | 17.17739 | -82.89250 | 33956 ft | 476 kts | 4° |
| 2026-05-04 21:42 | 17.24237 | -82.88205 | 33964 ft | 476 kts | 4° |
| 2026-05-04 21:42 | 17.30784 | -82.87151 | 33956 ft | 476 kts | 4° |
| 2026-05-04 21:43 | 17.37332 | -82.86096 | 33966 ft | 476 kts | 4° |
| 2026-05-04 21:43 | 17.43881 | -82.85040 | 33963 ft | 476 kts | 4° |
| 2026-05-04 21:44 | 17.50434 | -82.83983 | 33965 ft | 476 kts | 4° |
| 2026-05-04 21:44 | 17.56943 | -82.82932 | 33964 ft | 476 kts | 4° |
| 2026-05-04 21:45 | 17.63484 | -82.81875 | 33966 ft | 476 kts | 4° |
| 2026-05-04 21:45 | 17.70044 | -82.80814 | 33966 ft | 477 kts | 4° |
| 2026-05-04 21:46 | 17.76615 | -82.79751 | 33968 ft | 477 kts | 4° |
| 2026-05-04 21:46 | 17.83186 | -82.78686 | 33966 ft | 477 kts | 4° |
| 2026-05-04 21:47 | 17.89747 | -82.77622 | 33970 ft | 477 kts | 4° |
| 2026-05-04 21:47 | 17.96272 | -82.76564 | 33968 ft | 476 kts | 4° |
| 2026-05-04 21:48 | 18.02832 | -82.75499 | 33963 ft | 476 kts | 4° |
| 2026-05-04 21:48 | 18.09388 | -82.74435 | 33963 ft | 477 kts | 4° |
| 2026-05-04 21:49 | 18.15945 | -82.73369 | 33969 ft | 477 kts | 4° |
| 2026-05-04 21:49 | 18.22502 | -82.72302 | 33965 ft | 477 kts | 4° |
| 2026-05-04 21:50 | 18.29016 | -82.71242 | 33975 ft | 477 kts | 4° |
| 2026-05-04 21:50 | 18.35584 | -82.70172 | 33972 ft | 478 kts | 4° |
| 2026-05-04 21:51 | 18.42172 | -82.69098 | 33969 ft | 479 kts | 4° |
| 2026-05-04 21:51 | 18.48762 | -82.68022 | 33973 ft | 479 kts | 4° |
| 2026-05-04 21:52 | 18.55353 | -82.66946 | 33972 ft | 479 kts | 4° |
| 2026-05-04 21:52 | 18.61904 | -82.65875 | 33974 ft | 479 kts | 4° |
| 2026-05-04 21:53 | 18.68493 | -82.64797 | 33975 ft | 479 kts | 4° |
| 2026-05-04 21:53 | 18.75080 | -82.63719 | 33974 ft | 479 kts | 4° |
| 2026-05-04 21:54 | 18.81666 | -82.62640 | 33974 ft | 479 kts | 4° |
| 2026-05-04 21:54 | 18.88256 | -82.61560 | 33974 ft | 479 kts | 4° |
| 2026-05-04 21:55 | 18.94855 | -82.60477 | 33974 ft | 479 kts | 4° |
| 2026-05-04 21:55 | 19.01450 | -82.59394 | 33977 ft | 479 kts | 4° |
| 2026-05-04 21:56 | 19.08006 | -82.58316 | 33977 ft | 479 kts | 4° |
| 2026-05-04 21:56 | 19.14592 | -82.57233 | 33981 ft | 479 kts | 4° |
| 2026-05-04 21:57 | 19.21186 | -82.56148 | 33976 ft | 479 kts | 4° |
| 2026-05-04 21:57 | 19.27784 | -82.55061 | 33975 ft | 479 kts | 4° |
| 2026-05-04 21:58 | 19.34372 | -82.53975 | 33978 ft | 479 kts | 4° |
| 2026-05-04 21:58 | 19.39857 | -82.53070 | 33977 ft | 480 kts | 4° |
| 2026-05-04 21:59 | 19.47528 | -82.51803 | 33977 ft | 480 kts | 4° |
| 2026-05-04 21:59 | 19.54122 | -82.50713 | 33979 ft | 480 kts | 4° |
| 2026-05-04 22:00 | 19.59607 | -82.49806 | 33983 ft | 480 kts | 4° |
| 2026-05-04 22:00 | 19.66213 | -82.48712 | 33987 ft | 479 kts | 3° |
| 2026-05-04 22:01 | 19.72814 | -82.47618 | 33981 ft | 479 kts | 3° |
| 2026-05-04 22:01 | 19.79397 | -82.46527 | 33980 ft | 479 kts | 3° |
| 2026-05-04 22:02 | 19.85930 | -82.45443 | 33980 ft | 478 kts | 3° |
| 2026-05-04 22:02 | 19.92513 | -82.44350 | 33979 ft | 478 kts | 3° |
| 2026-05-04 22:03 | 19.99098 | -82.43255 | 33996 ft | 478 kts | 3° |
| 2026-05-04 22:03 | 20.05676 | -82.42161 | 33977 ft | 478 kts | 3° |
| 2026-05-04 22:04 | 20.12210 | -82.40678 | 33983 ft | 482 kts | 9° |
| 2026-05-04 22:04 | 20.18696 | -82.38805 | 33978 ft | 484 kts | 9° |
| 2026-05-04 22:05 | 20.25191 | -82.36898 | 33980 ft | 484 kts | 9° |
| 2026-05-04 22:05 | 20.31694 | -82.34981 | 33994 ft | 485 kts | 9° |
| 2026-05-04 22:06 | 20.38143 | -82.33076 | 33989 ft | 484 kts | 9° |
| 2026-05-04 22:06 | 20.44629 | -82.31159 | 33988 ft | 484 kts | 9° |
| 2026-05-04 22:07 | 20.51117 | -82.29240 | 33986 ft | 484 kts | 9° |
| 2026-05-04 22:07 | 20.57607 | -82.27318 | 33984 ft | 484 kts | 9° |
| 2026-05-04 22:08 | 20.64093 | -82.25396 | 34001 ft | 484 kts | 9° |
| 2026-05-04 22:08 | 20.70579 | -82.23472 | 33982 ft | 484 kts | 9° |
| 2026-05-04 22:09 | 20.77073 | -82.21544 | 33982 ft | 484 kts | 9° |
| 2026-05-04 22:09 | 20.83563 | -82.19615 | 33982 ft | 484 kts | 9° |
| 2026-05-04 22:10 | 20.90017 | -82.17695 | 33983 ft | 484 kts | 9° |
| 2026-05-04 22:10 | 20.96508 | -82.15763 | 33998 ft | 484 kts | 9° |
| 2026-05-04 22:11 | 21.03027 | -82.13821 | 33982 ft | 485 kts | 9° |
| 2026-05-04 22:11 | 21.09489 | -82.11894 | 33982 ft | 485 kts | 9° |
| 2026-05-04 22:12 | 21.16015 | -82.09946 | 33982 ft | 485 kts | 9° |
| 2026-05-04 22:12 | 21.22517 | -82.08003 | 33982 ft | 485 kts | 9° |
| 2026-05-04 22:13 | 21.28979 | -82.06071 | 33985 ft | 485 kts | 9° |
| 2026-05-04 22:13 | 21.35482 | -82.04124 | 33985 ft | 485 kts | 9° |
| 2026-05-04 22:14 | 21.41986 | -82.02176 | 33982 ft | 485 kts | 9° |
| 2026-05-04 22:14 | 21.48489 | -82.00226 | 33982 ft | 485 kts | 9° |
| 2026-05-04 22:15 | 21.54958 | -81.98284 | 33982 ft | 485 kts | 9° |
| 2026-05-04 22:15 | 21.61458 | -81.96331 | 33993 ft | 485 kts | 9° |
| 2026-05-04 22:16 | 21.67959 | -81.94376 | 33982 ft | 485 kts | 9° |
| 2026-05-04 22:16 | 21.74456 | -81.92421 | 33983 ft | 484 kts | 9° |
| 2026-05-04 22:17 | 21.80957 | -81.90462 | 33984 ft | 484 kts | 9° |
| 2026-05-04 22:17 | 21.87456 | -81.88503 | 33982 ft | 484 kts | 9° |
| 2026-05-04 22:18 | 21.93953 | -81.86541 | 34001 ft | 484 kts | 9° |
| 2026-05-04 22:18 | 22.00397 | -81.84595 | 33985 ft | 484 kts | 9° |
| 2026-05-04 22:19 | 22.06889 | -81.82631 | 33983 ft | 484 kts | 9° |
| 2026-05-04 22:19 | 22.13371 | -81.80669 | 33988 ft | 484 kts | 9° |
| 2026-05-04 22:20 | 22.19860 | -81.78703 | 33988 ft | 484 kts | 9° |
| 2026-05-04 22:20 | 22.26342 | -81.76737 | 34004 ft | 483 kts | 10° |
| 2026-05-04 22:21 | 22.32777 | -81.74784 | 33990 ft | 483 kts | 10° |
| 2026-05-04 22:21 | 22.39248 | -81.72817 | 33992 ft | 483 kts | 10° |
| 2026-05-04 22:22 | 22.45716 | -81.70850 | 33994 ft | 483 kts | 10° |
| 2026-05-04 22:22 | 22.52190 | -81.68879 | 33996 ft | 483 kts | 10° |
| 2026-05-04 22:23 | 22.58625 | -81.66918 | 34007 ft | 483 kts | 10° |
| 2026-05-04 22:23 | 22.65097 | -81.64944 | 33994 ft | 483 kts | 10° |
| 2026-05-04 22:24 | 22.71586 | -81.62963 | 33997 ft | 485 kts | 10° |
| 2026-05-04 22:24 | 22.78100 | -81.60971 | 33993 ft | 486 kts | 10° |
| 2026-05-04 22:25 | 22.84608 | -81.58980 | 33996 ft | 486 kts | 10° |
| 2026-05-04 22:25 | 22.91120 | -81.56985 | 33992 ft | 486 kts | 10° |
| 2026-05-04 22:26 | 22.97641 | -81.54987 | 33997 ft | 488 kts | 10° |
| 2026-05-04 22:26 | 23.04129 | -81.52995 | 33989 ft | 488 kts | 10° |
| 2026-05-04 22:27 | 23.10671 | -81.50986 | 33998 ft | 488 kts | 10° |
| 2026-05-04 22:27 | 23.17212 | -81.48974 | 33987 ft | 488 kts | 10° |
| 2026-05-04 22:28 | 23.23752 | -81.46961 | 33999 ft | 488 kts | 9° |
| 2026-05-04 22:28 | 23.30265 | -81.44955 | 33993 ft | 489 kts | 9° |
| 2026-05-04 22:29 | 23.36816 | -81.42934 | 33993 ft | 489 kts | 9° |
| 2026-05-04 22:29 | 23.43369 | -81.40911 | 33990 ft | 489 kts | 9° |
| 2026-05-04 22:30 | 23.49935 | -81.38881 | 33992 ft | 489 kts | 9° |